aviador You're here:

PAOO Decoded Metar

TOKSOOK BAY in AK, USA
Report Time2018-06-22 00:56:00
UTC Time2018-06-22 01:34:01
Flight Rules vfr VFR
Wind190° at 16 kt
W.Decomp.*RWY 16: 15.2 kt HW 4.9 kt RCW
W.Rank190° ranks 11
Current wind is above 190° avg. (11.7)
Visibility9999 m
Phenomena:N/A
Clouds:Broken 045 Hf
Overcast 060 Hf
Expected CloudBase > 800 ft AGL from Temp-Dew spread
Ceiling4,500 ft
Temp11°C (ISA -4)
Dew Point09°C (88% RH)
AAT5.0°C
QNH1004 hPa
Density Alt56 ft
Elevation59 ft
Report Wrong Elevation
Raw Report
PAOO 220056Z AUTO 19016KT 10SM BKN045 OVC060 11/09 A2964 RMK AO2
WSHFT 0010 SLP049 T01110089=

Extra information for PAOO:More info

Metar Taf Metar & Taf Last 4 Metars F.Rules Stats Wind Profile Meteogram Temp Stats Airport Information Weather charts Add Link Nearby VenuesMetar ALERT Operation Metar Decoded Social comments

AIRNAV info for PAOO